Time;durP1;ratioP1;P1;durP2;ratioP2;P2;SDS_P1;SDS_P2;PMS_P1;PMS_P2;Temp;Humidity;BMP_temperature;BMP_pressure;BME280_temperature;BME280_humidity;BME280_pressure;Samples;Min_cycle;Max_cycle;Signal;HPM_P1;HPM_P2
2022/10/08 00:01:16;;;;;;;23.92;13.75;;;;;;;16.73;61.10;99302.97;4455603;32;20085;-95
2022/10/08 00:03:43;;;;;;;24.58;13.20;;;;;;;16.70;61.23;99293.38;4455723;32;20085;-95
2022/10/08 00:06:14;;;;;;;28.40;14.32;;;;;;;16.71;61.13;99296.91;4456750;32;20085;-95
2022/10/08 00:08:42;;;;;;;23.27;13.25;;;;;;;16.67;61.19;99298.94;4455714;32;20121;-95
2022/10/08 00:11:12;;;;;;;23.30;13.73;;;;;;;16.67;61.06;99301.59;4456577;32;20437;-95
2022/10/08 00:13:40;;;;;;;24.73;13.00;;;;;;;16.60;61.18;99297.69;4455850;32;20424;-95
2022/10/08 00:16:12;;;;;;;21.00;12.85;;;;;;;16.65;61.11;99292.00;4455901;32;20127;-95
2022/10/08 00:18:39;;;;;;;20.75;12.88;;;;;;;16.61;61.28;99294.06;4455585;32;20162;-94
2022/10/08 00:21:20;;;;;;;23.02;13.02;;;;;;;16.59;61.37;99284.47;4455864;32;20115;-95
2022/10/08 00:23:47;;;;;;;21.73;12.32;;;;;;;16.60;61.36;99279.06;4456482;32;20089;-95
2022/10/08 00:26:13;;;;;;;22.17;12.25;;;;;;;16.57;61.39;99281.94;4456677;32;20096;-95
2022/10/08 00:28:41;;;;;;;22.10;13.15;;;;;;;16.53;61.46;99272.47;4456681;32;20088;-95
2022/10/08 00:31:09;;;;;;;22.08;12.70;;;;;;;16.39;61.97;99272.62;4455796;32;20112;-94
2022/10/08 00:33:35;;;;;;;22.87;12.80;;;;;;;16.46;61.67;99272.06;4456880;32;20081;-95
2022/10/08 00:36:02;;;;;;;23.30;13.48;;;;;;;16.45;61.65;99273.00;4455677;32;20131;-95
2022/10/08 00:38:27;;;;;;;24.45;14.43;;;;;;;16.40;61.92;99266.31;4456796;32;20707;-96
2022/10/08 00:40:53;;;;;;;22.67;12.60;;;;;;;16.35;62.06;99258.69;4456514;32;20425;-95
2022/10/08 00:43:39;;;;;;;20.98;13.18;;;;;;;16.43;61.91;99256.31;4456651;32;20130;-95
2022/10/08 00:46:06;;;;;;;22.15;13.45;;;;;;;16.41;61.98;99255.56;4442601;32;20104;-95
2022/10/08 00:48:31;;;;;;;22.37;13.38;;;;;;;16.38;62.02;99254.94;4442585;32;20735;-95
2022/10/08 00:50:57;;;;;;;25.62;13.68;;;;;;;16.36;62.04;99252.41;4455545;32;20085;-95
2022/10/08 00:53:22;;;;;;;24.58;13.38;;;;;;;16.35;62.00;99249.88;4456717;32;20073;-96
2022/10/08 00:55:48;;;;;;;24.48;14.27;;;;;;;16.37;61.94;99242.62;4456642;32;20090;-95
2022/10/08 00:58:17;;;;;;;24.98;13.75;;;;;;;16.35;61.96;99244.53;4442341;32;20096;-95
2022/10/08 01:00:43;;;;;;;21.92;13.02;;;;;;;16.30;61.96;99235.09;4455251;32;20164;-95
2022/10/08 01:03:08;;;;;;;23.67;12.55;;;;;;;16.33;61.88;99243.81;4456429;32;20406;-94
2022/10/08 01:05:50;;;;;;;21.05;12.48;;;;;;;16.30;61.76;99250.16;4455429;32;20136;-95
2022/10/08 01:08:38;;;;;;;23.35;12.85;;;;;;;16.27;61.85;99240.63;4456402;32;20096;-95
2022/10/08 01:11:26;;;;;;;22.05;12.65;;;;;;;16.23;61.78;99244.44;4456205;32;20232;-95
2022/10/08 01:14:04;;;;;;;19.42;11.27;;;;;;;16.21;61.72;99238.41;4455093;32;20101;-95
2022/10/08 01:16:32;;;;;;;19.37;11.00;;;;;;;16.20;61.64;99239.34;4455328;32;20093;-96
2022/10/08 01:19:30;;;;;;;21.75;12.25;;;;;;;16.22;61.46;99242.75;4456417;32;20112;-95
2022/10/08 01:22:12;;;;;;;22.10;12.20;;;;;;;16.17;61.45;99236.91;4455064;32;20453;-95
2022/10/08 01:27:44;;;;;;;22.30;11.98;;;;;;;16.17;61.42;99228.94;4455203;32;20155;-95
2022/10/08 01:30:13;;;;;;;21.92;12.20;;;;;;;16.16;61.43;99226.38;4455092;32;20113;-96
2022/10/08 01:32:55;;;;;;;21.40;12.77;;;;;;;16.11;61.47;99224.06;4456295;32;20456;-94
2022/10/08 01:35:25;;;;;;;21.60;12.10;;;;;;;16.15;61.46;99224.66;4455438;32;20140;-96
2022/10/08 01:37:54;;;;;;;23.15;13.05;;;;;;;16.10;61.52;99225.00;4455107;32;20109;-95
2022/10/08 01:40:24;;;;;;;24.10;13.15;;;;;;;16.03;61.62;99223.72;4455343;32;20487;-95
2022/10/08 01:42:51;;;;;;;21.92;13.07;;;;;;;16.07;61.45;99212.78;4455327;32;20057;-96
2022/10/08 01:45:21;;;;;;;25.23;13.83;;;;;;;16.05;61.40;99216.50;4455178;32;20084;-95
2022/10/08 01:47:49;;;;;;;28.20;15.52;;;;;;;16.06;61.43;99215.56;4455372;32;20112;-94
2022/10/08 01:50:37;;;;;;;25.40;15.00;;;;;;;15.72;62.52;99213.41;4455194;32;20109;-96
2022/10/08 01:53:14;;;;;;;27.85;14.98;;;;;;;15.87;62.12;99198.22;4455303;32;20093;-95
2022/10/08 01:55:43;;;;;;;24.85;15.23;;;;;;;15.91;61.96;99198.88;4455134;32;20110;-95
2022/10/08 01:58:12;;;;;;;28.20;15.93;;;;;;;15.83;62.45;99193.25;4455138;32;20117;-95
2022/10/08 02:00:39;;;;;;;29.58;16.77;;;;;;;15.81;62.62;99193.34;4455251;32;20169;-96
2022/10/08 02:03:04;;;;;;;28.50;16.65;;;;;;;15.83;62.54;99193.25;4456320;32;20089;-95
2022/10/08 02:05:33;;;;;;;30.80;18.42;;;;;;;15.83;62.37;99194.09;4456158;32;20073;-95
2022/10/08 02:08:00;;;;;;;30.35;17.45;;;;;;;15.86;62.25;99195.72;4455057;32;20131;-95
2022/10/08 02:10:25;;;;;;;28.53;16.90;;;;;;;15.73;62.56;99198.34;4454955;32;20186;-95
2022/10/08 02:12:51;;;;;;;30.12;17.73;;;;;;;15.80;62.45;99202.28;4455144;32;20296;-95
2022/10/08 02:15:18;;;;;;;31.08;16.08;;;;;;;15.84;62.31;99197.59;4454895;32;20089;-95
2022/10/08 02:17:57;;;;;;;31.30;17.77;;;;;;;15.81;62.29;99192.50;4455876;32;20097;-95
2022/10/08 02:20:49;;;;;;;27.05;16.35;;;;;;;15.81;62.35;99185.37;4441827;32;20101;-95
2022/10/08 02:24:10;;;;;;;26.52;16.05;;;;;;;15.85;62.20;99186.88;4454744;32;20103;-94
2022/10/08 02:26:48;;;;;;;26.23;15.35;;;;;;;15.85;62.13;99186.88;4386225;32;20116;-95
2022/10/08 02:29:19;;;;;;;27.48;14.98;;;;;;;15.79;62.14;99187.28;4392511;32;20106;-96
2022/10/08 02:31:51;;;;;;;25.67;15.73;;;;;;;15.80;62.05;99183.69;4379837;32;20453;-95
2022/10/08 02:34:30;;;;;;;27.48;16.12;;;;;;;15.79;62.03;99183.81;4379791;32;20113;-95
2022/10/08 02:37:07;;;;;;;26.70;16.33;;;;;;;15.79;62.15;99176.66;4379842;32;20087;-96
2022/10/08 02:39:36;;;;;;;25.33;15.13;;;;;;;15.74;62.25;99176.13;4392381;32;20106;-95
2022/10/08 02:42:05;;;;;;;26.85;15.95;;;;;;;15.69;62.40;99181.75;4379716;32;20337;-95
2022/10/08 02:44:44;;;;;;;25.58;14.60;;;;;;;15.76;62.31;99191.97;4379624;32;20082;-95
2022/10/08 02:47:13;;;;;;;25.42;15.18;;;;;;;15.76;62.22;99176.91;4379820;32;20186;-95
2022/10/08 02:49:42;;;;;;;24.55;13.85;;;;;;;15.69;62.34;99181.75;4379610;32;20102;-95
2022/10/08 02:52:08;;;;;;;23.05;13.23;;;;;;;15.72;62.31;99178.87;4379777;32;20494;-95
2022/10/08 02:54:38;;;;;;;25.77;15.07;;;;;;;15.72;62.12;99175.34;4379658;32;20450;-95
2022/10/08 02:57:14;;;;;;;26.70;14.87;;;;;;;15.68;62.04;99180.06;4379541;32;20110;-95
2022/10/08 02:59:41;;;;;;;23.58;13.52;;;;;;;15.68;62.07;99182.72;4379633;32;20126;-95
2022/10/08 03:02:08;;;;;;;23.17;13.93;;;;;;;15.68;62.05;99174.75;4425196;32;20085;-96
2022/10/08 03:04:40;;;;;;;23.70;14.73;;;;;;;15.66;62.06;99179.28;4454270;32;20111;-95
2022/10/08 03:07:06;;;;;;;25.10;13.32;;;;;;;15.58;62.15;99178.97;4454259;32;20077;-95
2022/10/08 03:09:36;;;;;;;25.02;15.20;;;;;;;15.53;62.24;99176.66;4455171;32;20111;-95
2022/10/08 03:12:02;;;;;;;24.20;14.13;;;;;;;15.58;62.14;99180.78;4454374;32;20123;-95
2022/10/08 03:14:27;;;;;;;25.85;15.13;;;;;;;15.57;62.00;99177.28;4454208;32;20081;-95
2022/10/08 03:16:53;;;;;;;24.90;14.93;;;;;;;15.54;62.06;99180.16;4454273;32;20208;-95
2022/10/08 03:19:19;;;;;;;25.37;15.27;;;;;;;15.50;62.15;99182.16;4455393;32;20107;-95
2022/10/08 03:21:46;;;;;;;26.10;15.73;;;;;;;15.51;62.17;99170.59;4454162;32;20102;-95
2022/10/08 03:24:13;;;;;;;28.15;16.70;;;;;;;15.54;62.17;99183.66;4454321;32;20502;-95
2022/10/08 03:26:38;;;;;;;24.60;15.98;;;;;;;15.49;62.28;99172.50;4455925;32;20240;-95
2022/10/08 03:29:04;;;;;;;25.50;16.05;;;;;;;15.54;62.24;99178.34;4456054;32;20248;-95
2022/10/08 03:31:30;;;;;;;27.73;16.00;;;;;;;15.51;62.41;99185.66;4455955;32;20161;-95
2022/10/08 03:33:56;;;;;;;28.38;17.25;;;;;;;15.50;62.42;99187.47;4457061;32;20399;-95
2022/10/08 03:36:23;;;;;;;27.02;16.42;;;;;;;15.47;62.42;99177.06;4457181;32;20152;-95
2022/10/08 03:38:48;;;;;;;26.50;15.93;;;;;;;15.47;62.47;99176.22;4442902;32;20124;-95
2022/10/08 03:41:14;;;;;;;27.30;17.37;;;;;;;15.46;62.45;99185.97;4456870;32;20152;-96
2022/10/08 03:43:40;;;;;;;28.00;16.23;;;;;;;15.39;62.70;99182.03;4456995;32;20176;-95
2022/10/08 03:46:06;;;;;;;27.23;16.08;;;;;;;15.44;62.54;99179.09;4455807;32;20081;-95
2022/10/08 03:48:32;;;;;;;29.65;17.55;;;;;;;15.42;62.61;99175.69;4455764;32;20162;-95
2022/10/08 03:50:59;;;;;;;28.50;16.80;;;;;;;15.40;62.71;99166.97;4456751;32;20122;-96
2022/10/08 03:53:25;;;;;;;28.40;16.95;;;;;;;15.34;62.85;99171.75;4456959;32;20593;-95
2022/10/08 03:55:51;;;;;;;30.73;17.87;;;;;;;15.37;62.88;99177.78;4455666;32;20138;-95
2022/10/08 03:58:17;;;;;;;32.75;19.05;;;;;;;15.37;62.93;99173.34;4456761;32;20126;-95
2022/10/08 04:00:42;;;;;;;31.75;20.15;;;;;;;15.39;62.81;99178.53;4455753;32;20147;-95
2022/10/08 04:03:09;;;;;;;28.33;17.73;;;;;;;15.34;62.96;99170.91;4456759;32;20077;-95
2022/10/08 04:05:34;;;;;;;30.62;19.15;;;;;;;15.37;63.02;99165.38;4456841;32;20116;-95
2022/10/08 04:08:00;;;;;;;30.35;19.05;;;;;;;15.33;63.06;99171.84;4455733;32;20098;-96
2022/10/08 04:10:25;;;;;;;30.45;17.92;;;;;;;15.16;63.95;99170.31;4455432;32;20351;-95
2022/10/08 04:12:51;;;;;;;30.45;17.92;;;;;;;15.25;63.54;99163.56;4456570;32;20353;-95
2022/10/08 04:15:17;;;;;;;29.85;17.48;;;;;;;15.28;63.39;99160.72;4456693;32;20081;-96
2022/10/08 04:17:42;;;;;;;31.58;18.90;;;;;;;15.29;63.23;99160.56;4456936;32;20135;-96
2022/10/08 04:20:08;;;;;;;32.13;18.73;;;;;;;15.26;63.29;99162.59;4456943;32;20113;-95
2022/10/08 04:22:34;;;;;;;31.35;17.52;;;;;;;15.26;63.29;99162.59;4456925;32;20088;-95
2022/10/08 04:24:59;;;;;;;29.98;17.83;;;;;;;15.20;63.41;99163.88;4455396;32;20081;-95
2022/10/08 04:27:25;;;;;;;27.65;17.60;;;;;;;15.26;63.20;99160.81;4456742;32;20377;-96
2022/10/08 04:29:50;;;;;;;28.12;17.52;;;;;;;15.27;63.16;99165.16;4456704;32;20082;-95
2022/10/08 04:32:15;;;;;;;30.10;17.55;;;;;;;15.21;63.30;99167.38;4456619;32;20163;-95
2022/10/08 04:34:41;;;;;;;28.23;18.12;;;;;;;14.96;64.41;99166.38;4455399;32;20081;-95
2022/10/08 04:37:06;;;;;;;30.55;18.50;;;;;;;15.13;63.79;99158.12;4454897;32;20097;-95
2022/10/08 04:39:32;;;;;;;29.52;18.17;;;;;;;15.19;63.56;99161.31;4456491;32;20105;-95
2022/10/08 04:41:57;;;;;;;27.62;18.05;;;;;;;15.22;63.43;99161.97;4456652;32;20077;-95
2022/10/08 04:44:23;;;;;;;27.30;17.67;;;;;;;15.22;63.38;99167.28;4456291;32;20100;-95
2022/10/08 04:46:48;;;;;;;27.77;18.05;;;;;;;15.24;63.33;99164.50;4456464;32;20088;-95
2022/10/08 04:49:14;;;;;;;27.65;17.08;;;;;;;15.22;63.41;99161.97;4456594;32;20351;-96
2022/10/08 04:51:39;;;;;;;26.35;17.10;;;;;;;15.26;63.21;99166.12;4455190;32;20112;-95
2022/10/08 04:54:05;;;;;;;28.50;17.12;;;;;;;15.23;63.21;99168.13;4456431;32;20447;-95
2022/10/08 04:56:31;;;;;;;25.75;15.80;;;;;;;15.22;63.26;99164.63;4456497;32;20117;-96
2022/10/08 04:58:58;;;;;;;28.00;17.52;;;;;;;15.26;63.12;99159.94;4456603;32;20097;-95
2022/10/08 05:01:25;;;;;;;27.80;18.10;;;;;;;15.27;63.06;99159.84;4455399;32;20102;-96
2022/10/08 05:03:51;;;;;;;27.05;17.23;;;;;;;15.27;63.12;99169.59;4456305;32;20655;-96
2022/10/08 05:06:19;;;;;;;27.75;16.58;;;;;;;15.27;63.16;99161.66;4456435;32;20093;-95
2022/10/08 05:08:45;;;;;;;28.10;15.52;;;;;;;15.35;63.07;99167.28;4455304;32;20152;-95
2022/10/08 05:11:11;;;;;;;27.80;16.55;;;;;;;15.34;63.10;99170.91;4455133;32;20376;-95
2022/10/08 05:13:37;;;;;;;26.40;15.77;;;;;;;15.39;63.05;99165.28;4456356;32;20081;-95
2022/10/08 05:16:07;;;;;;;26.17;15.15;;;;;;;15.40;63.21;99174.94;4456419;32;20089;-95
2022/10/08 05:18:34;;;;;;;24.73;15.13;;;;;;;15.43;63.21;99172.94;4455330;32;20128;-95
2022/10/08 05:21:04;;;;;;;25.77;15.15;;;;;;;15.46;63.20;99170.06;4456434;32;20085;-96
2022/10/08 05:23:30;;;;;;;24.98;15.15;;;;;;;15.54;62.99;99174.84;4455099;32;20085;-95
2022/10/08 05:25:55;;;;;;;23.02;14.18;;;;;;;15.60;62.86;99170.91;4455157;32;20136;-96
2022/10/08 05:28:21;;;;;;;26.67;15.95;;;;;;;15.65;62.86;99182.91;4456197;32;20107;-96
2022/10/08 05:30:46;;;;;;;26.83;14.50;;;;;;;15.71;62.74;99177.16;4455040;32;20085;-96
2022/10/08 05:33:11;;;;;;;22.33;13.80;;;;;;;15.76;62.66;99168.94;4455073;32;20100;-96
2022/10/08 05:35:37;;;;;;;23.83;14.45;;;;;;;15.83;62.48;99172.84;4456152;32;20092;-95
2022/10/08 05:38:03;;;;;;;26.15;14.10;;;;;;;15.89;62.32;99175.06;4456133;32;20089;-95
2022/10/08 05:40:29;;;;;;;27.05;16.27;;;;;;;15.91;62.36;99170.47;4456091;32;20112;-96
2022/10/08 05:42:55;;;;;;;28.87;16.75;;;;;;;15.98;62.37;99184.19;4456080;32;20086;-95
2022/10/08 05:45:20;;;;;;;28.90;18.10;;;;;;;16.05;62.40;99187.25;4456128;32;20089;-95
2022/10/08 05:47:47;;;;;;;29.95;16.95;;;;;;;16.12;62.43;99194.69;4456121;32;20089;-95
2022/10/08 05:50:13;;;;;;;29.75;17.25;;;;;;;16.19;62.15;99195.13;4456118;32;20527;-96
2022/10/08 05:52:38;;;;;;;30.17;18.20;;;;;;;16.23;62.07;99193.94;4454880;32;20115;-95
2022/10/08 05:55:04;;;;;;;30.27;18.67;;;;;;;16.27;61.95;99203.41;4454947;32;20116;-96
2022/10/08 05:57:30;;;;;;;28.30;17.50;;;;;;;16.34;61.77;99200.28;4456151;32;20172;-96
2022/10/08 05:59:55;;;;;;;30.88;17.95;;;;;;;16.42;61.58;99201.47;4456078;32;20077;-95
2022/10/08 06:02:21;;;;;;;30.55;18.75;;;;;;;16.49;61.55;99201.84;4441878;32;20112;-96
2022/10/08 06:04:48;;;;;;;30.58;18.50;;;;;;;16.55;61.04;99203.22;4455868;32;20120;-96
2022/10/08 06:07:13;;;;;;;28.60;17.52;;;;;;;16.52;60.96;99199.81;4456123;32;20155;-95
2022/10/08 06:09:39;;;;;;;29.25;17.83;;;;;;;16.50;61.00;99199.09;4455824;32;20400;-96
2022/10/08 06:12:05;;;;;;;29.02;17.10;;;;;;;16.60;60.79;99206.41;4454761;32;20115;-95
2022/10/08 06:14:30;;;;;;;25.67;15.93;;;;;;;16.67;60.46;99203.19;4456134;32;20102;-95
2022/10/08 06:16:56;;;;;;;26.65;16.05;;;;;;;16.79;60.40;99198.75;4454726;32;20146;-96
2022/10/08 06:19:21;;;;;;;27.70;15.82;;;;;;;16.90;59.94;99204.19;4456003;32;20452;-96
2022/10/08 06:21:47;;;;;;;31.73;15.82;;;;;;;16.96;59.87;99207.31;4454697;32;20097;-96
2022/10/08 06:24:13;;;;;;;27.20;16.67;;;;;;;16.77;59.82;99195.38;4454525;32;20186;-96
2022/10/08 06:26:40;;;;;;;24.37;15.52;;;;;;;16.68;59.31;99210.19;4455883;32;20093;-96
2022/10/08 06:29:08;;;;;;;25.03;15.37;;;;;;;16.65;59.77;99212.22;4455989;32;20548;-95
2022/10/08 06:31:35;;;;;;;24.20;14.75;;;;;;;16.92;59.15;99213.84;4454632;32;20177;-96
2022/10/08 06:34:02;;;;;;;24.45;14.77;;;;;;;17.14;58.82;99211.28;4454702;32;20093;-96
2022/10/08 06:36:28;;;;;;;27.13;14.40;;;;;;;16.54;59.33;99212.16;4454654;32;20162;-95
2022/10/08 06:38:55;;;;;;;24.85;15.00;;;;;;;17.03;58.29;99214.75;4455811;32;20089;-95
2022/10/08 06:41:21;;;;;;;29.12;14.87;;;;;;;16.94;58.06;99215.44;4455707;32;20137;-96
2022/10/08 06:43:47;;;;;;;23.23;14.15;;;;;;;17.00;58.29;99212.31;4454435;32;20361;-96
2022/10/08 06:46:13;;;;;;;24.40;14.70;;;;;;;17.25;57.61;99218.50;4454689;32;20105;-95
2022/10/08 06:48:39;;;;;;;23.42;13.18;;;;;;;17.40;57.36;99213.78;4455557;32;20080;-95
2022/10/08 06:51:13;;;;;;;22.35;13.00;;;;;;;17.48;57.31;99220.25;4454509;32;20134;-95
2022/10/08 06:53:39;;;;;;;24.73;13.38;;;;;;;17.60;57.33;99221.13;4454572;32;20096;-96
2022/10/08 06:56:09;;;;;;;22.55;13.13;;;;;;;17.73;56.76;99229.03;4454476;32;20346;-96
2022/10/08 06:58:35;;;;;;;20.73;13.07;;;;;;;17.82;56.22;99225.63;4441464;32;20111;-95
2022/10/08 07:01:04;;;;;;;26.37;14.55;;;;;;;17.85;56.03;99217.44;4455111;32;20113;-95
2022/10/08 07:03:30;;;;;;;24.33;13.55;;;;;;;17.90;56.00;99224.22;4454319;32;20085;-95
2022/10/08 07:05:59;;;;;;;22.17;13.62;;;;;;;17.98;55.61;99220.00;4454363;32;20146;-95
2022/10/08 07:08:24;;;;;;;22.85;14.00;;;;;;;18.11;55.29;99217.22;4455880;32;20085;-95
2022/10/08 07:10:50;;;;;;;23.30;13.18;;;;;;;18.22;54.98;99219.88;4455297;32;20110;-95
2022/10/08 07:13:16;;;;;;;21.60;13.82;;;;;;;18.23;54.67;99215.37;4455624;32;20134;-96
2022/10/08 07:15:41;;;;;;;23.58;13.68;;;;;;;18.23;54.77;99224.25;4455790;32;20085;-96
2022/10/08 07:18:10;;;;;;;24.77;14.23;;;;;;;18.23;54.60;99220.72;4455531;32;20061;-96
2022/10/08 07:20:36;;;;;;;23.42;13.20;;;;;;;18.31;54.41;99220.97;4455454;32;20077;-95
2022/10/08 07:23:01;;;;;;;22.62;13.20;;;;;;;18.38;53.65;99216.00;4455389;32;20111;-95
2022/10/08 07:25:26;;;;;;;22.85;12.48;;;;;;;18.40;53.55;99211.38;4455337;32;20097;-95
2022/10/08 07:27:52;;;;;;;24.35;13.27;;;;;;;18.43;53.86;99211.16;4455190;32;20125;-96
2022/10/08 07:30:17;;;;;;;22.85;12.95;;;;;;;18.49;53.61;99213.31;4455385;32;20100;-95
2022/10/08 07:32:42;;;;;;;23.50;13.50;;;;;;;18.49;53.70;99215.13;4454087;32;20467;-95
2022/10/08 07:35:08;;;;;;;21.83;13.15;;;;;;;18.51;53.20;99207.84;4455307;32;20130;-96
2022/10/08 07:37:34;;;;;;;22.37;13.27;;;;;;;18.45;53.46;99214.53;4455316;32;20085;-96
2022/10/08 07:39:59;;;;;;;23.08;13.52;;;;;;;18.39;53.72;99218.53;4455267;32;20097;-96
2022/10/08 07:42:24;;;;;;;22.58;13.90;;;;;;;18.49;54.15;99223.13;4453852;32;20101;-96
2022/10/08 07:44:50;;;;;;;21.12;12.50;;;;;;;18.51;53.91;99218.53;4455060;32;20104;-96
2022/10/08 07:47:15;;;;;;;20.55;12.55;;;;;;;18.50;53.93;99215.00;4440904;32;20138;-96
2022/10/08 07:49:41;;;;;;;23.65;13.07;;;;;;;18.30;54.56;99218.44;4454844;32;20107;-96
2022/10/08 07:52:07;;;;;;;21.45;12.50;;;;;;;18.18;53.87;99217.59;4454868;32;20089;-95
2022/10/08 07:54:32;;;;;;;23.05;13.55;;;;;;;18.36;53.09;99208.09;4454809;32;20101;-96
2022/10/08 07:57:00;;;;;;;22.85;13.98;;;;;;;18.44;52.98;99215.50;4452836;32;20411;-94
2022/10/08 07:59:26;;;;;;;21.10;12.57;;;;;;;18.46;52.68;99209.03;4451761;32;20120;-96
2022/10/08 08:01:52;;;;;;;23.25;12.75;;;;;;;18.53;52.87;99208.56;4446323;32;20112;-96
2022/10/08 08:04:18;;;;;;;19.40;12.80;;;;;;;18.39;53.45;99213.19;4447070;32;20481;-95
2022/10/08 08:06:48;;;;;;;23.55;13.18;;;;;;;18.51;52.77;99213.19;4445207;32;20093;-96
2022/10/08 08:09:17;;;;;;;22.65;13.57;;;;;;;18.47;53.27;99210.75;4460626;32;20103;-96
2022/10/08 08:11:43;;;;;;;21.27;13.18;;;;;;;18.46;53.12;99217.06;4455848;32;20191;-95
2022/10/08 08:14:08;;;;;;;22.95;13.50;;;;;;;18.52;53.14;99210.38;4468135;32;20143;-96
2022/10/08 08:19:09;;;;;;;20.50;12.70;;;;;;;18.34;53.78;99214.53;4485323;26;20078;-95
2022/10/08 08:21:36;;;;;;;22.92;14.52;;;;;;;18.52;53.33;99213.03;4441905;32;20120;-95
2022/10/08 08:24:10;;;;;;;22.77;13.57;;;;;;;18.58;52.54;99206.38;4443709;32;20085;-96
2022/10/08 08:26:37;;;;;;;25.10;13.18;;;;;;;18.54;52.92;99208.44;4428961;32;20081;-95
2022/10/08 08:29:14;;;;;;;24.55;14.32;;;;;;;18.52;52.68;99206.88;4441161;32;20640;-96
2022/10/08 08:31:59;;;;;;;22.10;13.10;;;;;;;18.55;52.97;99210.13;4449427;32;20070;-94
2022/10/08 08:34:29;;;;;;;21.92;14.27;;;;;;;18.43;53.44;99205.81;4437260;32;20102;-90
2022/10/08 08:36:54;;;;;;;21.95;13.20;;;;;;;18.52;52.95;99205.03;4413413;32;20089;-90
2022/10/08 08:39:22;;;;;;;26.52;14.77;;;;;;;18.61;52.92;99204.31;4475429;26;20062;-90
2022/10/08 08:41:52;;;;;;;23.25;15.23;;;;;;;18.43;53.16;99208.47;4445789;32;20058;-96
2022/10/08 08:44:23;;;;;;;23.70;14.32;;;;;;;17.90;54.47;99216.22;4443081;32;20135;-96
2022/10/08 08:47:18;;;;;;;26.17;13.82;;;;;;;18.36;53.67;99208.09;4442331;32;20081;-96
2022/10/08 08:49:50;;;;;;;23.10;14.87;;;;;;;18.15;53.85;99201.81;4445758;32;20420;-96
2022/10/08 08:52:17;;;;;;;20.73;13.65;;;;;;;18.43;53.39;99209.31;4431317;32;20113;-93
2022/10/08 08:54:48;;;;;;;22.48;13.85;;;;;;;18.53;53.78;99200.56;4440119;32;20161;-95
2022/10/08 08:57:25;;;;;;;24.90;13.27;;;;;;;18.68;52.83;99202.00;4441669;32;20093;-96
2022/10/08 08:59:54;;;;;;;22.83;13.30;;;;;;;18.69;52.63;99193.00;4450860;26;20092;-96
2022/10/08 09:02:34;;;;;;;21.80;12.23;;;;;;;18.76;52.62;99198.69;4438085;32;20093;-88
2022/10/08 09:05:03;;;;;;;20.52;12.52;;;;;;;18.85;52.30;99198.81;4425964;32;20106;-92
2022/10/08 09:07:37;;;;;;;21.10;12.40;;;;;;;18.89;51.79;99203.91;4425881;32;20155;-92
2022/10/08 09:10:08;;;;;;;21.12;12.75;;;;;;;18.96;51.73;99205.09;4441195;32;20108;-93
2022/10/08 09:12:38;;;;;;;19.70;11.50;;;;;;;18.96;51.66;99208.59;4441065;32;20081;-93
2022/10/08 09:15:04;;;;;;;21.45;14.18;;;;;;;19.07;51.83;99212.22;4426988;32;20457;-92
2022/10/08 09:17:32;;;;;;;24.17;14.13;;;;;;;18.88;51.66;99211.06;4424538;32;20110;-91
2022/10/08 09:19:59;;;;;;;22.37;13.60;;;;;;;17.83;53.91;99215.84;4423903;32;20081;-92
2022/10/08 09:22:30;;;;;;;22.48;12.82;;;;;;;18.64;52.35;99208.56;4438525;32;20113;-92
2022/10/08 09:24:59;;;;;;;21.55;12.32;;;;;;;18.91;52.18;99208.16;4423138;32;20101;-90
2022/10/08 09:27:57;;;;;;;20.90;12.68;;;;;;;18.86;51.61;99210.34;4438331;32;20081;-92
2022/10/08 09:30:38;;;;;;;21.52;12.23;;;;;;;19.02;51.78;99202.75;4438765;32;20129;-92
2022/10/08 09:33:15;;;;;;;23.73;14.10;;;;;;;19.02;51.93;99202.75;4423169;32;20100;-92
2022/10/08 09:35:58;;;;;;;21.25;13.13;;;;;;;18.72;52.19;99207.94;4438186;32;20449;-93
2022/10/08 09:38:30;;;;;;;22.30;12.70;;;;;;;19.13;51.49;99209.03;4438633;32;20135;-92
2022/10/08 09:41:15;;;;;;;21.10;13.40;;;;;;;19.03;51.14;99199.13;4424454;32;20069;-92
2022/10/08 09:43:40;;;;;;;21.10;12.77;;;;;;;19.20;51.26;99199.50;4438121;32;20082;-92
2022/10/08 09:46:10;;;;;;;23.33;13.77;;;;;;;19.36;50.41;99197.25;4438791;32;20143;-93
2022/10/08 09:48:36;;;;;;;21.15;13.10;;;;;;;19.44;50.64;99189.44;4425216;32;20115;-92
2022/10/08 09:51:15;;;;;;;23.05;12.93;;;;;;;19.51;50.68;99186.22;4424818;32;20089;-91
2022/10/08 09:53:53;;;;;;;23.50;13.75;;;;;;;19.58;50.24;99187.41;4411780;32;20753;-93
2022/10/08 09:56:28;;;;;;;22.55;13.77;;;;;;;19.74;50.06;99186.97;4423592;32;20106;-92
2022/10/08 09:59:16;;;;;;;22.50;13.70;;;;;;;19.74;50.09;99182.50;4423386;32;20090;-91
2022/10/08 10:01:45;;;;;;;21.92;13.40;;;;;;;19.34;50.83;99182.34;4424099;32;20458;-92
2022/10/08 10:04:18;;;;;;;23.23;13.77;;;;;;;19.49;50.89;99178.37;4423448;32;20098;-92
2022/10/08 10:06:47;;;;;;;22.62;12.95;;;;;;;19.35;51.38;99176.84;4424684;32;20165;-93
2022/10/08 10:09:37;;;;;;;21.62;13.27;;;;;;;19.69;50.60;99176.66;4424012;32;20887;-92
2022/10/08 10:12:28;;;;;;;21.65;13.18;;;;;;;19.86;49.96;99169.87;4424594;32;20073;-92
2022/10/08 10:14:56;;;;;;;23.75;13.02;;;;;;;19.90;49.52;99165.13;4436292;32;20761;-94
2022/10/08 10:17:31;;;;;;;20.12;12.82;;;;;;;19.94;49.98;99171.88;4438713;32;20123;-91
2022/10/08 10:20:02;;;;;;;16.95;10.45;;;;;;;19.68;50.54;99161.59;4438079;32;20139;-92
2022/10/08 10:22:56;;;;;;;18.17;11.70;;;;;;;19.94;49.96;99166.53;4423807;32;20465;-93
2022/10/08 10:25:54;;;;;;;21.80;11.25;;;;;;;20.10;49.26;99158.84;4424345;32;20097;-92
2022/10/08 10:28:42;;;;;;;21.73;11.32;;;;;;;20.00;49.81;99152.63;4423974;32;20102;-95
2022/10/08 10:31:39;;;;;;;20.15;10.88;;;;;;;20.25;48.84;99155.81;4434373;32;20150;-93
2022/10/08 10:34:13;;;;;;;19.23;10.85;;;;;;;20.33;48.53;99147.94;4406523;32;20146;-94
2022/10/08 10:36:46;;;;;;;19.75;11.30;;;;;;;20.32;48.23;99140.88;4423205;32;20086;-90
2022/10/08 10:39:37;;;;;;;18.12;10.27;;;;;;;20.13;48.37;99131.84;4412651;32;20127;-92
2022/10/08 10:42:42;;;;;;;18.77;10.88;;;;;;;19.78;50.20;99132.25;4429882;32;20139;-92
2022/10/08 10:45:19;;;;;;;18.70;10.52;;;;;;;20.29;48.91;99125.13;4417978;32;20077;-92
2022/10/08 10:47:44;;;;;;;20.15;10.30;;;;;;;20.35;47.95;99112.03;4429417;32;20123;-92
2022/10/08 10:50:14;;;;;;;17.67;10.27;;;;;;;20.13;48.78;99118.47;4417834;32;20114;-94
2022/10/08 10:53:09;;;;;;;16.75;8.82;;;;;;;20.47;47.71;99110.06;4417185;32;20120;-92
2022/10/08 10:55:39;;;;;;;15.63;9.13;;;;;;;20.69;47.07;99108.19;4422369;32;20137;-92
2022/10/08 10:58:30;;;;;;;20.15;10.30;;;;;;;20.77;46.42;99108.31;4421991;32;20093;-94
2022/10/08 11:01:05;;;;;;;19.40;9.38;;;;;;;20.84;46.02;99095.19;4430908;32;20085;-92
2022/10/08 11:03:56;;;;;;;15.57;7.65;;;;;;;20.54;47.31;99097.00;4410656;32;20400;-93
2022/10/08 11:06:31;;;;;;;15.40;8.00;;;;;;;21.01;45.57;99094.47;4424614;32;20081;-91
2022/10/08 11:09:08;;;;;;;13.85;6.37;;;;;;;20.86;45.06;99086.06;4422049;32;20165;-92
2022/10/08 11:11:58;;;;;;;15.13;6.40;;;;;;;20.97;44.53;99088.56;4422310;32;20093;-91
2022/10/08 11:14:36;;;;;;;13.57;6.75;;;;;;;21.03;44.47;99089.81;4421689;32;20089;-91
2022/10/08 11:17:20;;;;;;;16.35;6.47;;;;;;;21.08;44.85;99081.38;4422145;32;20115;-92
2022/10/08 11:19:57;;;;;;;13.60;6.93;;;;;;;21.07;44.26;99083.19;4421831;32;20163;-92
2022/10/08 11:22:39;;;;;;;14.20;6.40;;;;;;;21.28;44.13;99069.59;4422218;32;20153;-91
2022/10/08 11:25:32;;;;;;;12.52;5.87;;;;;;;21.30;43.98;99067.62;4408892;32;20094;-92
2022/10/08 11:28:07;;;;;;;11.55;5.30;;;;;;;21.49;43.07;99076.63;4427955;32;20089;-91
2022/10/08 11:30:58;;;;;;;11.07;5.53;;;;;;;21.37;42.95;99073.25;4421164;32;20153;-91
2022/10/08 11:33:24;;;;;;;12.23;4.87;;;;;;;21.51;42.69;99071.97;4410152;32;20128;-90
2022/10/08 11:35:59;;;;;;;12.90;4.80;;;;;;;21.46;42.26;99060.81;4420808;32;20147;-90
2022/10/08 11:39:03;;;;;;;10.27;4.47;;;;;;;21.51;42.05;99056.72;4430310;32;20162;-90